地図

経路データ

SID SEASON NUMBER BASIN SUBBASIN NAME ISO_TIME NATURE LAT LON WMO_WIND WMO_PRES WMO_AGENCY TRACK_TYPE DIST2LAND LANDFALL IFLAG USA_AGENCY USA_ATCF_ID USA_LAT USA_LON USA_RECORD USA_STATUS USA_WIND USA_PRES USA_SSHS USA_R34_NE USA_R34_SE USA_R34_SW USA_R34_NW USA_R50_NE USA_R50_SE USA_R50_SW USA_R50_NW USA_R64_NE USA_R64_SE USA_R64_SW USA_R64_NW USA_POCI USA_ROCI USA_RMW USA_EYE TOKYO_LAT TOKYO_LON TOKYO_GRADE TOKYO_WIND TOKYO_PRES TOKYO_R50_DIR TOKYO_R50_LONG TOKYO_R50_SHORT TOKYO_R30_DIR TOKYO_R30_LONG TOKYO_R30_SHORT TOKYO_LAND CMA_LAT CMA_LON CMA_CAT CMA_WIND CMA_PRES HKO_LAT HKO_LON HKO_CAT HKO_WIND HKO_PRES NEWDELHI_LAT NEWDELHI_LON NEWDELHI_GRADE NEWDELHI_WIND NEWDELHI_PRES NEWDELHI_CI NEWDELHI_DP NEWDELHI_POCI REUNION_LAT REUNION_LON REUNION_TYPE REUNION_WIND REUNION_PRES REUNION_TNUM REUNION_CI REUNION_RMW REUNION_R34_NE REUNION_R34_SE REUNION_R34_SW REUNION_R34_NW REUNION_R50_NE REUNION_R50_SE REUNION_R50_SW REUNION_R50_NW REUNION_R64_NE REUNION_R64_SE REUNION_R64_SW REUNION_R64_NW BOM_LAT BOM_LON BOM_TYPE BOM_WIND BOM_PRES BOM_TNUM BOM_CI BOM_RMW BOM_R34_NE BOM_R34_SE BOM_R34_SW BOM_R34_NW BOM_R50_NE BOM_R50_SE BOM_R50_SW BOM_R50_NW BOM_R64_NE BOM_R64_SE BOM_R64_SW BOM_R64_NW BOM_ROCI BOM_POCI BOM_EYE BOM_POS_METHOD BOM_PRES_METHOD NADI_LAT NADI_LON NADI_CAT NADI_WIND NADI_PRES WELLINGTON_LAT WELLINGTON_LON WELLINGTON_WIND WELLINGTON_PRES DS824_LAT DS824_LON DS824_STAGE DS824_WIND DS824_PRES TD9636_LAT TD9636_LON TD9636_STAGE TD9636_WIND TD9636_PRES TD9635_LAT TD9635_LON TD9635_WIND TD9635_PRES TD9635_ROCI NEUMANN_LAT NEUMANN_LON NEUMANN_CLASS NEUMANN_WIND NEUMANN_PRES MLC_LAT MLC_LON MLC_CLASS MLC_WIND MLC_PRES USA_GUST BOM_GUST BOM_GUST_PER REUNION_GUST REUNION_GUST_PER USA_SEAHGT USA_SEARAD_NE USA_SEARAD_SE USA_SEARAD_SW USA_SEARAD_NW STORM_SPEED STORM_DIR
1973027S15139 1973 16 SP EA ADELINE 1973-01-27 00:00:00 TS -14.6000 138.600 30 998 bom main 175 165 O_____O___O___ jtwc_sh SH171973 -14.9000 138.700 -1 -13.7000 138.300 20 30 998 2.50000 -14.9000 138.700 2 3 241
1973027S15139 1973 16 SP EA ADELINE 1973-01-27 03:00:00 TS -14.6737 138.459 main 167 147 P_____P___P___ SH171973 -14.9475 138.555 -1 -13.8370 138.207 20 32 996 -14.9627 138.519 2 3 252
1973027S15139 1973 16 SP EA ADELINE 1973-01-27 06:00:00 TS -14.6970 138.296 35 995 bom main 147 136 O_____O__OP___ jtwc_sh SH171973 -15.0000 138.400 -1 -14.0000 138.100 30 35 995 3.00000 -14.0000 138.100 TC 40 995 -15.0202 138.350 2 3 251
1973027S15139 1973 16 SP EA ADELINE 1973-01-27 09:00:00 TS -14.7750 138.156 35 995 bom main 140 131 P_____O__PP___ SH171973 -15.0575 138.235 -1 -14.2000 138.000 30 35 995 3.00000 -14.2100 138.050 TC 40 995 -15.0676 138.206 2 2 243
1973027S15139 1973 16 SP EA ADELINE 1973-01-27 12:00:00 TS -14.8100 138.070 35 995 bom main 131 121 O_____O__OO_O_ jtwc_sh SH171973 -15.1000 138.100 -1 -14.4000 138.000 30 35 995 3.00000 -14.4000 138.000 TC 40 995 -15.1000 138.100 2 -14.2000 138.200 TC 15 1006 2 243
1973027S15139 1973 16 SP EA ADELINE 1973-01-27 15:00:00 TS -14.8440 138.011 35 995 bom main 121 121 P_____O__PP_P_ SH171973 -15.1000 138.035 -1 -14.6000 137.900 30 35 995 3.00000 -14.5575 137.950 TC 40 995 -15.1158 138.037 2 -14.3375 138.210 TC 15 1006 1 226
1973027S15139 1973 16 SP EA ADELINE 1973-01-27 18:00:00 TS -14.8874 137.991 35 995 bom main 126 126 O_____O__OP_O_ jtwc_sh SH171973 -15.1000 138.000 -1 -14.7000 137.900 30 35 995 3.00000 -14.7000 137.900 TC 40 995 -15.1274 138.000 2 -14.5000 138.200 TC 15 1006 1 201
1973027S15139 1973 16 SP EA ADELINE 1973-01-27 21:00:00 TS -14.9771 137.950 35 995 bom main 124 124 P_____O__PP_P_ SH171973 -15.1350 137.965 -1 -14.9000 137.800 30 35 995 3.00000 -14.8425 137.850 TC 40 995 -15.1502 137.962 2 -14.7000 138.158 TC 15 1006 2 199
1973027S15139 1973 16 SP EA ADELINE 1973-01-27 23:30:00 TS -15.0506 137.927 35 995 bom main 124 124 P_____O__PP_P_ SH171973 -15.1871 137.915 -1 -14.9000 137.900 30 35 995 3.00000 -14.9716 137.808 TC 40 995 -15.1892 137.913 2 -14.8688 138.110 TC 15 1006 2 198
1973027S15139 1973 16 SP EA ADELINE 1973-01-28 00:00:00 TS -15.0833 137.900 35 995 bom main 124 109 O_____O__OO_O_ jtwc_sh SH171973 -15.2000 137.900 -1 -15.0000 137.800 30 35 995 3.00000 -15.0000 137.800 TC 40 995 -15.2000 137.900 2 -14.9000 138.100 TC 15 1006 3 211
1973027S15139 1973 16 SP EA ADELINE 1973-01-28 03:00:00 TS -15.2201 137.815 45 990 bom main 109 84 P_____O__PP_P_ SH171973 -15.2850 137.765 -1 -15.2000 137.800 30 45 990 3.00000 -15.2000 137.750 TC 42 992 -15.3004 137.759 2 -15.0500 138.050 TC 22 1003 3 214
1973027S15139 1973 16 SP EA ADELINE 1973-01-28 06:00:00 TS -15.3713 137.699 45 990 bom main 84 70 O_____O__OP_O_ jtwc_sh SH171973 -15.4000 137.600 -1 -15.4000 137.700 30 45 990 3.00000 -15.4000 137.700 TC 45 990 -15.4277 137.593 2 -15.2000 138.000 TC 30 1000 4 215
1973027S15139 1973 16 SP EA ADELINE 1973-01-28 09:00:00 TS -15.5218 137.599 45 990 bom main 70 46 P_____O__PP_P_ SH171973 -15.5500 137.435 -1 -15.5000 137.700 30 45 990 3.00000 -15.5650 137.643 TC 52 985 -15.5661 137.430 2 -15.4000 137.950 TC 37 995 4 211
1973027S15139 1973 16 SP EA ADELINE 1973-01-28 12:00:00 TS -15.6833 137.500 60 980 bom main 46 35 O_____O__OO_O_ jtwc_sh SH171973 -15.7000 137.300 -1 -15.7000 137.600 30 60 980 4.00000 -15.7000 137.600 TC 60 980 -15.7000 137.300 2 -15.6000 137.900 TC 45 990 3 206
1973027S15139 1973 16 SP EA ADELINE 1973-01-28 15:00:00 TS -15.7920 137.462 60 980 bom main 35 22 P_____O__PP_P_ SH171973 -15.8075 137.227 -1 -15.8000 137.600 30 60 980 4.00000 -15.8000 137.600 TC 65 975 -15.7867 137.267 2 -15.7500 137.850 TC 52 985 2 196
1973027S15139 1973 16 SP EA ADELINE 1973-01-28 18:00:00 TS -15.8950 137.444 70 970 bom main 22 11 O_____O__OP_O_ jtwc_sh SH171973 -15.9000 137.200 -1 -15.9000 137.600 40 70 970 4.50000 -15.9000 137.600 TC 70 970 -15.8698 137.265 2 -15.9000 137.800 TC 60 980 2 185
1973027S15139 1973 16 SP EA ADELINE 1973-01-28 20:00:00 TS -15.9928 137.439 70 970 bom main 11 11 P_____O__PP_P_ SH171973 -15.9558 137.214 -1 -16.1000 137.600 40 70 970 4.50000 -15.9877 137.579 TC 70 970 -15.9324 137.261 2 -16.0254 137.767 TC 65 976 3 195
1973027S15139 1973 16 SP EA ADELINE 1973-01-28 21:00:00 TS -16.0276 137.412 70 970 bom main 11 0 P_____O__PP_P_ SH171973 -15.9850 137.222 -1 -16.1000 137.500 40 70 970 4.50000 -16.0375 137.563 TC 70 970 -15.9680 137.255 2 -16.0925 137.750 TC 67 975 3 199
1973027S15139 1973 16 SP EA ADELINE 1973-01-28 23:30:00 TS -16.1599 137.382 70 970 bom main 0 0 P_____O__PP_P_ SH171973 -16.0766 137.212 -1 -16.3000 137.500 40 70 970 4.50000 -16.1722 137.511 TC 70 970 -16.0748 137.214 2 -16.2654 137.708 TC 73 970 3 202
1973027S15139 1973 16 SP EA ADELINE 1973-01-29 00:00:00 TS -16.1550 137.350 70 970 bom main 0 0 O_____O__OO_O_ jtwc_sh SH171973 -16.1000 137.200 -1 -16.2000 137.500 40 70 970 4.50000 -16.2000 137.500 TC 70 970 -16.1000 137.200 2 -16.3000 137.700 TC 75 970 4 239
1973027S15139 1973 16 SP EA ADELINE 1973-01-29 03:00:00 TS -16.2753 137.181 main 0 0 P_____P___P_P_ SH171973 -16.2775 137.030 -1 -16.1595 137.429 40 60 TC -16.2731 137.002 2 -16.5025 137.650 TC 67 5 225
1973027S15139 1973 16 SP EA ADELINE 1973-01-29 06:00:00 TS -16.5313 136.956 50 bom main 0 0 O_____O___P_O_ jtwc_sh SH171973 -16.5000 136.800 -1 -16.6000 137.300 21 50 -16.4829 136.763 2 -16.7000 137.600 TC 60 7 223
1973027S15139 1973 16 SP EA ADELINE 1973-01-29 09:00:00 TS -16.7522 136.719 main 0 0 P_____P___P___ SH171973 -16.7275 136.555 -1 -16.8274 137.222 21 45 -16.7262 136.543 2 TC 6 217
1973027S15139 1973 16 SP EA ADELINE 1973-01-29 12:00:00 TS -17.0250 136.575 40 bom main 0 0 O_____O___O___ jtwc_sh SH171973 -17.0000 136.400 -1 -17.1000 137.100 30 40 -17.0000 136.400 2 6 192
1973027S15139 1973 16 SP EA ADELINE 1973-01-29 15:00:00 TS -17.3570 136.581 main 0 0 P_____P___P___ SH171973 -17.3425 136.455 -1 -17.4350 136.873 30 35 -17.3078 136.542 2 7 175
1973027S15139 1973 16 SP EA ADELINE 1973-01-29 18:00:00 TS -17.7043 136.639 30 bom main 0 0 O_____O___P___ jtwc_sh SH171973 -17.7000 136.600 -1 -17.8000 136.600 20 30 -17.6412 136.747 2 7 165
1973027S15139 1973 16 SP EA ADELINE 1973-01-29 21:00:00 TS -18.0245 136.764 main 0 0 P_____P___P___ SH171973 -18.0147 136.812 -1 -18.1550 136.343 20 27 -17.9790 136.879 2 6 170
1973027S15139 1973 16 SP EA ADELINE 1973-01-30 00:00:00 TS -18.3154 136.746 25 bom main 0 0 O_____O___O___ jtwc_sh SH171973 -18.3000 136.800 -1 -18.5000 136.100 20 25 -18.3000 136.800 2 7 221
1973027S15139 1973 16 SP EA ADELINE 1973-01-30 03:00:00 TS -18.5647 136.274 main 0 0 P_________P___ SH171973 -18.5578 136.278 -1 20 -18.5785 136.267 2 13 247
1973027S15139 1973 16 SP EA ADELINE 1973-01-30 06:00:00 TS -18.8115 135.507 main 0 0 O_________P___ jtwc_sh SH171973 -18.8000 135.500 -1 -18.8344 135.522 2 16 251
1973027S15139 1973 16 SI WA ADELINE 1973-01-30 09:00:00 TS -19.0629 134.704 main 0 0 P_________P___ SH171973 -19.0580 134.698 -1 -19.0726 134.716 2 15 251
1973027S15139 1973 16 SI WA ADELINE 1973-01-30 12:00:00 TS -19.3000 134.000 main 0 0 O_________O___ jtwc_sh SH171973 -19.3000 134.000 -1 -19.3000 134.000 2 11 247
1973027S15139 1973 16 SI WA ADELINE 1973-01-30 15:00:00 TS -19.5029 133.624 main 0 0 P_________P___ SH171973 -19.4994 133.632 -1 -19.5099 133.608 2 7 235
1973027S15139 1973 16 SI WA ADELINE 1973-01-30 18:00:00 TS -19.7058 133.374 main 0 0 O_________P___ jtwc_sh SH171973 -19.7000 133.400 -1 -19.7175 133.323 2 7 228
1973027S15139 1973 16 SI WA ADELINE 1973-01-30 21:00:00 TS -19.9371 133.102 main 0 0 P_________P___ SH171973 -19.9349 133.115 -1 -19.9415 133.076 2 7 228
1973027S15139 1973 16 SI WA ADELINE 1973-01-31 00:00:00 TS -20.2000 132.800 main 0 0 O_________O___ jtwc_sh SH171973 -20.2000 132.800 -1 -20.2000 132.800 2 8 229
1973027S15139 1973 16 SI WA ADELINE 1973-01-31 03:00:00 TS -20.4868 132.433 main 0 0 P_________P___ SH171973 -20.4774 132.430 -1 -20.5057 132.440 2 10 231
1973027S15139 1973 16 SI WA ADELINE 1973-01-31 06:00:00 TS -20.8167 132.001 main 0 0 O_________P___ jtwc_sh SH171973 -20.8000 132.000 -1 -20.8500 132.003 2 11 230
1973027S15139 1973 16 SI WA ADELINE 1973-01-31 09:00:00 TS -21.1950 131.516 main 0 0 P_________P___ SH171973 -21.1828 131.516 -1 -21.2192 131.515 2 12 230
1973027S15139 1973 16 SI WA ADELINE 1973-01-31 12:00:00 TS -21.6000 131.000 main 0 O_________O___ jtwc_sh SH171973 -21.6000 131.000 -1 -21.6000 131.000 2 13 230

デジタル台風データ・検索

IBTrACS Databaseについて

本データベースは、米国NOAAが公開する1842年以降の世界の熱帯低気圧のベストトラックデータアーカイブInternational Best Track Archive for Climate Stewardship (IBTrACS)を、ウェブで閲覧しやすい形式に変換したものです。

最終更新日:2021-12-01